createdAt,value
2022-11-07T00:00:00.863Z,43.66
2022-11-07T00:01:00.913Z,42.65
2022-11-07T00:02:00.956Z,46.08
2022-11-07T00:03:00.933Z,61.92
2022-11-07T00:04:00.827Z,50.13
2022-11-07T00:05:00.858Z,48.27
2022-11-07T00:06:00.812Z,71.06
2022-11-07T00:07:00.902Z,49.74
2022-11-07T00:08:00.785Z,43.62
2022-11-07T00:09:00.773Z,45.34
2022-11-07T00:10:00.783Z,46.21
2022-11-07T00:11:00.750Z,43.22
2022-11-07T00:12:00.763Z,54.41
2022-11-07T00:13:00.760Z,45.89
2022-11-07T00:14:00.762Z,43.29
2022-11-07T00:15:00.714Z,50.15
2022-11-07T00:16:00.723Z,53.64
2022-11-07T00:17:00.700Z,43.33
2022-11-07T00:18:00.678Z,50.47
2022-11-07T00:19:00.678Z,43.17
2022-11-07T00:20:00.687Z,45.23
2022-11-07T00:21:00.647Z,43.76
2022-11-07T00:22:01.636Z,49.79
2022-11-07T00:23:00.647Z,61.80
2022-11-07T00:24:00.624Z,48.73
2022-11-07T00:25:00.643Z,51.70
2022-11-07T00:26:00.612Z,46.82
2022-11-07T00:27:00.648Z,49.12
2022-11-07T00:28:00.688Z,59.86
2022-11-07T00:29:00.575Z,43.69
2022-11-07T00:30:00.590Z,42.96
2022-11-07T00:31:00.573Z,42.97
2022-11-07T00:32:00.597Z,57.32
2022-11-07T00:33:00.677Z,57.87
2022-11-07T00:34:00.536Z,56.88
2022-11-07T00:35:00.533Z,61.76
2022-11-07T00:36:00.557Z,50.32
2022-11-07T00:37:00.496Z,49.51
2022-11-07T00:38:00.488Z,58.42
2022-11-07T00:39:00.484Z,48.47
2022-11-07T00:40:00.472Z,51.64
2022-11-07T00:41:00.526Z,48.01
2022-11-07T00:42:00.447Z,47.67
2022-11-07T00:43:00.450Z,50.96
2022-11-07T00:44:00.423Z,49.30
2022-11-07T00:45:00.426Z,61.53
2022-11-07T00:46:00.434Z,46.71
2022-11-07T00:47:00.413Z,42.87
2022-11-07T00:48:00.391Z,51.28
2022-11-07T00:49:00.386Z,51.96
2022-11-07T00:50:00.376Z,43.46
2022-11-07T00:51:00.368Z,43.52
2022-11-07T00:52:00.403Z,48.08
2022-11-07T00:53:00.336Z,49.61
2022-11-07T00:54:00.337Z,42.99
2022-11-07T00:55:00.316Z,42.98
2022-11-07T00:56:00.315Z,44.80
2022-11-07T00:57:00.314Z,55.62
2022-11-07T00:58:00.287Z,52.44
2022-11-07T00:59:00.270Z,59.69
2022-11-07T01:00:00.267Z,47.47
2022-11-07T01:01:00.259Z,42.90
2022-11-07T01:02:00.458Z,44.06
2022-11-07T01:03:00.316Z,62.25
2022-11-07T01:04:00.226Z,50.48
2022-11-07T01:05:00.220Z,49.95
2022-11-07T01:06:00.339Z,43.77
2022-11-07T01:07:00.213Z,47.06
2022-11-07T01:08:00.181Z,44.10
2022-11-07T01:09:00.175Z,42.97
2022-11-07T01:10:00.173Z,42.88
2022-11-07T01:11:00.172Z,42.89
2022-11-07T01:12:00.141Z,47.38
2022-11-07T01:13:00.143Z,50.70
2022-11-07T01:14:00.238Z,42.17
2022-11-07T01:15:00.262Z,42.64
2022-11-07T01:16:00.132Z,42.96
2022-11-07T01:17:00.100Z,42.59
2022-11-07T01:18:00.087Z,47.68
2022-11-07T01:19:00.091Z,44.51
2022-11-07T01:20:01.109Z,43.94
2022-11-07T01:21:00.055Z,58.46
2022-11-07T01:22:00.056Z,46.99
2022-11-07T01:23:00.047Z,43.28
2022-11-07T01:24:00.048Z,42.73
2022-11-07T01:25:00.037Z,43.94
2022-11-07T01:26:00.010Z,43.67
2022-11-07T01:27:00.001Z,47.12
2022-11-07T01:28:00.063Z,45.55
2022-11-07T01:28:59.992Z,51.53
2022-11-07T01:29:59.982Z,43.56
2022-11-07T01:30:59.976Z,59.34
2022-11-07T01:31:59.960Z,54.61
2022-11-07T01:32:59.980Z,49.09
2022-11-07T01:33:59.968Z,44.39
2022-11-07T01:34:59.931Z,41.87
2022-11-07T01:36:04.889Z,41.99
2022-11-07T01:37:00.947Z,42.13
2022-11-07T01:38:00.045Z,42.03
2022-11-07T01:38:59.892Z,50.06
2022-11-07T01:39:59.873Z,46.96
2022-11-07T01:40:59.932Z,61.82
2022-11-07T01:41:59.874Z,45.79
2022-11-07T01:42:59.918Z,53.04
2022-11-07T01:43:59.850Z,43.94
2022-11-07T01:44:59.816Z,41.87
2022-11-07T01:46:00.812Z,49.51
2022-11-07T01:46:59.811Z,49.90
2022-11-07T01:47:59.793Z,43.17
2022-11-07T01:48:59.806Z,42.18
2022-11-07T01:49:59.799Z,48.27
2022-11-07T01:50:59.790Z,42.32
2022-11-07T01:51:59.765Z,45.14
2022-11-07T01:52:59.753Z,49.27
2022-11-07T01:53:59.743Z,61.54
2022-11-07T01:54:59.755Z,53.58
2022-11-07T01:55:59.727Z,43.21
2022-11-07T01:56:59.718Z,53.02
2022-11-07T01:57:59.691Z,57.43
2022-11-07T01:58:59.703Z,49.86
2022-11-07T01:59:59.708Z,46.90
2022-11-07T02:00:59.712Z,45.04
2022-11-07T02:01:59.706Z,54.34
2022-11-07T02:02:59.779Z,60.62
2022-11-07T02:03:59.635Z,52.96
2022-11-07T02:04:59.625Z,44.02
2022-11-07T02:05:59.744Z,42.63
2022-11-07T02:06:59.609Z,63.30
2022-11-07T02:07:59.620Z,44.69
2022-11-07T02:08:59.632Z,50.96
2022-11-07T02:09:59.589Z,44.55
2022-11-07T02:10:59.574Z,48.06
2022-11-07T02:11:59.595Z,42.37
2022-11-07T02:12:59.565Z,43.00
2022-11-07T02:13:59.539Z,52.86
2022-11-07T02:14:59.528Z,44.65
2022-11-07T02:15:59.533Z,42.09
2022-11-07T02:16:59.570Z,44.04
2022-11-07T02:17:59.508Z,46.72
2022-11-07T02:18:59.488Z,44.42
2022-11-07T02:19:59.478Z,52.51
2022-11-07T02:20:59.474Z,54.20
2022-11-07T02:21:59.510Z,55.57
2022-11-07T02:22:59.459Z,43.33
2022-11-07T02:23:59.444Z,44.09
2022-11-07T02:24:59.424Z,44.17
2022-11-07T02:25:59.447Z,45.26
2022-11-07T02:26:59.419Z,51.80
2022-11-07T02:27:59.426Z,48.99
2022-11-07T02:28:59.390Z,46.86
2022-11-07T02:29:59.386Z,48.79
2022-11-07T02:30:59.420Z,63.58
2022-11-07T02:31:59.366Z,53.14
2022-11-07T02:32:59.355Z,50.37
2022-11-07T02:33:59.341Z,44.73
2022-11-07T02:34:59.342Z,62.57
2022-11-07T02:35:59.380Z,47.11
2022-11-07T02:37:31.194Z,43.21
2022-11-07T02:37:59.287Z,51.61
2022-11-07T02:38:59.285Z,43.78
2022-11-07T02:39:59.285Z,44.84
2022-11-07T02:40:59.264Z,50.68
2022-11-07T02:41:59.275Z,53.50
2022-11-07T02:43:00.320Z,57.07
2022-11-07T02:43:59.262Z,54.83
2022-11-07T02:44:59.224Z,48.14
2022-11-07T02:45:59.251Z,62.61
2022-11-07T02:46:59.215Z,49.20
2022-11-07T02:47:59.201Z,43.94
2022-11-07T02:48:59.204Z,46.12
2022-11-07T02:49:59.188Z,60.64
2022-11-07T02:50:59.225Z,44.84
2022-11-07T02:51:59.162Z,49.91
2022-11-07T02:52:59.167Z,51.82
2022-11-07T02:53:59.136Z,50.69
2022-11-07T02:54:59.157Z,51.32
2022-11-07T02:55:59.126Z,59.50
2022-11-07T02:56:59.117Z,58.71
2022-11-07T02:57:59.097Z,51.46
2022-11-07T02:58:59.092Z,52.70
2022-11-07T02:59:59.097Z,50.64
2022-11-07T03:00:59.065Z,47.69
2022-11-07T03:01:59.203Z,51.52
2022-11-07T03:02:59.235Z,46.51
2022-11-07T03:03:59.096Z,54.35
2022-11-07T03:04:59.028Z,50.66
2022-11-07T03:05:59.059Z,52.07
2022-11-07T03:06:59.014Z,50.35
2022-11-07T03:07:59.006Z,49.45
2022-11-07T03:08:59.012Z,52.54
2022-11-07T03:09:58.973Z,48.55
2022-11-07T03:10:58.971Z,43.45
2022-11-07T03:11:58.963Z,47.60
2022-11-07T03:12:58.949Z,50.30
2022-11-07T03:13:58.961Z,56.40
2022-11-07T03:14:58.937Z,55.20
2022-11-07T03:15:58.953Z,47.79
2022-11-07T03:16:58.909Z,44.17
2022-11-07T03:17:58.890Z,55.84
2022-11-07T03:18:58.885Z,50.74
2022-11-07T03:19:58.925Z,43.22
2022-11-07T03:20:58.882Z,46.84
2022-11-07T03:21:58.856Z,48.04
2022-11-07T03:22:58.856Z,45.98
2022-11-07T03:23:58.842Z,50.05
2022-11-07T03:24:58.903Z,52.34
2022-11-07T03:25:58.817Z,51.21
2022-11-07T03:26:58.808Z,51.24
2022-11-07T03:27:58.806Z,50.67
2022-11-07T03:28:58.806Z,46.95
2022-11-07T03:29:58.783Z,51.79
2022-11-07T03:30:59.784Z,54.01
2022-11-07T03:31:58.759Z,48.77
2022-11-07T03:32:58.756Z,51.78
2022-11-07T03:33:58.744Z,50.97
2022-11-07T03:34:58.735Z,51.39
2022-11-07T03:35:58.739Z,50.72
2022-11-07T03:36:58.731Z,49.93
2022-11-07T03:37:58.699Z,49.65
2022-11-07T03:38:58.690Z,50.82
2022-11-07T03:39:58.693Z,60.35
2022-11-07T03:40:58.756Z,51.22
2022-11-07T03:41:58.661Z,53.47
2022-11-07T03:42:58.661Z,58.46
2022-11-07T03:43:58.657Z,55.50
2022-11-07T03:44:58.668Z,49.49
2022-11-07T03:45:58.647Z,48.94
2022-11-07T03:46:58.609Z,52.01
2022-11-07T03:47:58.610Z,51.56
2022-11-07T03:48:59.604Z,46.77
2022-11-07T03:49:58.591Z,61.41
2022-11-07T03:50:58.584Z,51.31
2022-11-07T03:51:58.585Z,50.98
2022-11-07T03:52:58.576Z,57.69
2022-11-07T03:53:58.545Z,54.53
2022-11-07T03:54:58.563Z,53.44
2022-11-07T03:55:58.536Z,57.86
2022-11-07T03:56:58.570Z,51.06
2022-11-07T03:57:58.531Z,51.52
2022-11-07T03:58:58.514Z,53.08
2022-11-07T03:59:58.496Z,56.21
2022-11-07T04:00:58.480Z,55.96
2022-11-07T04:01:58.624Z,53.22
2022-11-07T04:02:58.640Z,52.06
2022-11-07T04:03:58.447Z,57.62
2022-11-07T04:04:58.438Z,63.48
2022-11-07T04:05:58.419Z,55.69
2022-11-07T04:06:58.423Z,55.67
2022-11-07T04:07:58.416Z,54.91
2022-11-07T04:08:58.411Z,55.68
2022-11-07T04:09:58.406Z,52.99
2022-11-07T04:10:58.452Z,53.63
2022-11-07T04:11:58.398Z,53.03
2022-11-07T04:12:58.372Z,53.84
2022-11-07T04:13:58.354Z,54.10
2022-11-07T04:14:58.355Z,57.23
2022-11-07T04:15:58.334Z,53.39
2022-11-07T04:16:58.384Z,65.74
2022-11-07T04:17:58.318Z,52.54
2022-11-07T04:18:58.311Z,48.19
2022-11-07T04:19:58.300Z,51.41
2022-11-07T04:20:58.282Z,57.76
2022-11-07T04:21:58.268Z,55.58
2022-11-07T04:22:58.267Z,55.09
2022-11-07T04:23:58.255Z,55.87
2022-11-07T04:24:58.240Z,55.85
2022-11-07T04:25:58.234Z,55.07
2022-11-07T04:26:58.234Z,52.62
2022-11-07T04:27:58.243Z,56.56
2022-11-07T04:28:58.199Z,54.58
2022-11-07T04:29:58.200Z,55.63
2022-11-07T04:30:58.186Z,54.33
2022-11-07T04:31:58.226Z,54.08
2022-11-07T04:32:58.159Z,55.63
2022-11-07T04:33:58.178Z,52.01
2022-11-07T04:34:58.150Z,62.40
2022-11-07T04:35:58.129Z,58.36
2022-11-07T04:36:58.121Z,56.38
2022-11-07T04:37:58.127Z,58.17
2022-11-07T04:38:58.113Z,56.24
2022-11-07T04:39:58.098Z,64.92
2022-11-07T04:40:58.103Z,54.05
2022-11-07T04:41:58.072Z,53.37
2022-11-07T04:42:58.067Z,56.23
2022-11-07T04:43:58.048Z,53.37
2022-11-07T04:44:58.114Z,54.47
2022-11-07T04:45:58.047Z,56.12
2022-11-07T04:46:58.022Z,56.03
2022-11-07T04:47:58.007Z,64.99
2022-11-07T04:48:58.000Z,56.41
2022-11-07T04:49:58.092Z,56.79
2022-11-07T04:50:57.977Z,55.72
2022-11-07T04:51:57.962Z,67.41
2022-11-07T04:52:57.972Z,56.84
2022-11-07T04:53:57.999Z,57.17
2022-11-07T04:54:57.943Z,55.40
2022-11-07T04:55:57.936Z,66.21
2022-11-07T04:56:57.931Z,57.36
2022-11-07T04:57:57.924Z,56.33
2022-11-07T04:58:57.969Z,54.60
2022-11-07T04:59:57.904Z,54.40
2022-11-07T05:00:57.880Z,55.68
2022-11-07T05:01:57.985Z,57.69
2022-11-07T05:02:57.912Z,54.49
2022-11-07T05:03:57.890Z,56.55
2022-11-07T05:04:57.839Z,57.26
2022-11-07T05:05:57.825Z,55.85
2022-11-07T05:06:57.821Z,56.10
2022-11-07T05:07:57.848Z,57.39
2022-11-07T05:08:57.794Z,59.01
2022-11-07T05:09:57.822Z,57.74
2022-11-07T05:10:57.777Z,55.87
2022-11-07T05:11:57.760Z,56.23
2022-11-07T05:12:57.756Z,57.09
2022-11-07T05:13:57.761Z,57.08
2022-11-07T05:14:57.764Z,55.78
2022-11-07T05:15:57.736Z,55.49
2022-11-07T05:16:57.722Z,57.21
2022-11-07T05:17:57.720Z,59.71
2022-11-07T05:18:57.710Z,61.90
2022-11-07T05:19:57.712Z,60.45
2022-11-07T05:20:57.690Z,54.43
2022-11-07T05:21:57.725Z,57.82
2022-11-07T05:22:57.685Z,56.52
2022-11-07T05:23:57.658Z,57.09
2022-11-07T05:24:57.657Z,58.52
2022-11-07T05:25:57.647Z,57.54
2022-11-07T05:26:57.658Z,56.76
2022-11-07T05:27:57.617Z,64.82
2022-11-07T05:28:57.624Z,55.85
2022-11-07T05:29:57.591Z,57.15
2022-11-07T05:30:57.610Z,57.89
2022-11-07T05:31:57.594Z,58.51
2022-11-07T05:32:57.563Z,57.92
2022-11-07T05:33:57.575Z,56.35
2022-11-07T05:34:57.586Z,64.71
2022-11-07T05:35:57.543Z,59.88
2022-11-07T05:36:57.543Z,57.75
2022-11-07T05:37:57.531Z,58.39
2022-11-07T05:38:57.526Z,59.47
2022-11-07T05:39:57.551Z,57.87
2022-11-07T05:40:57.493Z,58.93
2022-11-07T05:41:57.479Z,60.93
2022-11-07T05:42:57.492Z,60.41
2022-11-07T05:43:57.456Z,57.00
2022-11-07T05:44:57.440Z,59.37
2022-11-07T05:45:57.497Z,58.49
2022-11-07T05:46:57.456Z,59.48
2022-11-07T05:47:57.470Z,58.81
2022-11-07T05:49:00.903Z,57.10
2022-11-07T05:49:58.396Z,58.43
2022-11-07T05:50:57.398Z,58.10
2022-11-07T05:51:57.386Z,58.06
2022-11-07T05:52:57.418Z,58.12
2022-11-07T05:53:57.382Z,59.09
2022-11-07T05:54:57.382Z,56.92
2022-11-07T05:55:57.359Z,59.32
2022-11-07T05:56:57.338Z,58.84
2022-11-07T05:57:57.315Z,60.85
2022-11-07T05:58:57.348Z,57.18
2022-11-07T05:59:57.311Z,56.48
2022-11-07T06:00:57.299Z,57.03
2022-11-07T06:01:57.358Z,58.54
2022-11-07T06:02:57.516Z,59.42
2022-11-07T06:03:57.293Z,64.79
2022-11-07T06:04:57.240Z,59.08
2022-11-07T06:05:57.269Z,58.48
2022-11-07T06:06:57.227Z,61.51
2022-11-07T06:07:57.222Z,60.62
2022-11-07T06:08:57.266Z,60.34
2022-11-07T06:09:57.275Z,59.58
2022-11-07T06:10:57.192Z,64.34
2022-11-07T06:11:57.182Z,60.10
2022-11-07T06:12:57.177Z,58.40
2022-11-07T06:13:57.192Z,60.67
2022-11-07T06:14:57.167Z,59.69
2022-11-07T06:15:57.163Z,59.05
2022-11-07T06:16:57.139Z,60.19
2022-11-07T06:17:57.130Z,60.59
2022-11-07T06:18:57.126Z,58.36
2022-11-07T06:19:57.124Z,60.28
2022-11-07T06:20:57.086Z,58.52
2022-11-07T06:21:57.106Z,57.79
2022-11-07T06:22:57.078Z,59.85
2022-11-07T06:23:57.075Z,59.03
2022-11-07T06:24:57.059Z,57.82
2022-11-07T06:25:57.068Z,59.67
2022-11-07T06:26:57.079Z,59.11
2022-11-07T06:27:57.031Z,60.32
2022-11-07T06:28:57.016Z,59.93
2022-11-07T06:29:57.007Z,59.66
2022-11-07T06:30:57.005Z,61.48
2022-11-07T06:31:57.005Z,59.46
2022-11-07T06:32:56.989Z,59.68
2022-11-07T06:33:57.039Z,61.12
2022-11-07T06:34:56.956Z,60.18
2022-11-07T06:35:56.956Z,60.75
2022-11-07T06:37:02.827Z,59.02
2022-11-07T06:37:57.959Z,59.88
2022-11-07T06:38:56.933Z,59.99
2022-11-07T06:39:56.916Z,59.14
2022-11-07T06:40:56.941Z,60.02
2022-11-07T06:41:56.885Z,60.50
2022-11-07T06:42:56.873Z,63.98
2022-11-07T06:43:56.912Z,60.44
2022-11-07T06:44:56.885Z,58.71
2022-11-07T06:45:56.869Z,60.07
2022-11-07T06:46:56.946Z,59.94
2022-11-07T06:47:56.829Z,58.80
2022-11-07T06:48:56.842Z,60.50
2022-11-07T06:49:56.816Z,59.99
2022-11-07T06:50:56.821Z,58.93
2022-11-07T06:51:56.791Z,60.71
2022-11-07T06:52:56.778Z,59.47
2022-11-07T06:53:56.798Z,59.93
2022-11-07T06:54:56.779Z,59.92
2022-11-07T06:55:56.773Z,59.37
2022-11-07T06:56:56.739Z,60.25
2022-11-07T06:57:56.735Z,59.51
2022-11-07T06:58:56.725Z,58.55
2022-11-07T06:59:56.715Z,60.28
2022-11-07T07:00:56.856Z,58.85
2022-11-07T07:01:56.770Z,59.52
2022-11-07T07:02:59.081Z,58.68
2022-11-07T07:03:57.713Z,59.67
2022-11-07T07:04:56.680Z,59.45
2022-11-07T07:05:56.698Z,58.64
2022-11-07T07:06:56.642Z,59.15
2022-11-07T07:07:56.662Z,59.34
2022-11-07T07:08:56.655Z,57.82
2022-11-07T07:09:56.624Z,59.08
2022-11-07T07:10:56.624Z,59.23
2022-11-07T07:11:56.586Z,59.66
2022-11-07T07:12:56.651Z,58.03
2022-11-07T07:14:01.169Z,59.31
2022-11-07T07:14:58.581Z,60.30
2022-11-07T07:15:56.594Z,59.45
2022-11-07T07:16:56.552Z,61.34
2022-11-07T07:17:56.632Z,56.69
2022-11-07T07:18:56.575Z,58.04
2022-11-07T07:19:56.567Z,60.11
2022-11-07T07:20:56.506Z,58.10
2022-11-07T07:21:56.505Z,59.09
2022-11-07T07:23:01.452Z,58.13
2022-11-07T07:23:58.196Z,60.20
2022-11-07T07:24:56.478Z,57.80
2022-11-07T07:25:56.467Z,60.74
2022-11-07T07:26:56.454Z,57.97
2022-11-07T07:27:56.452Z,61.97
2022-11-07T07:28:56.436Z,57.86
2022-11-07T07:29:56.489Z,57.57
2022-11-07T07:30:56.443Z,59.42
2022-11-07T07:31:56.453Z,58.17
2022-11-07T07:32:56.390Z,60.51
2022-11-07T07:33:56.391Z,55.70
2022-11-07T07:34:56.436Z,58.38
2022-11-07T07:35:56.343Z,59.29
2022-11-07T07:36:56.411Z,58.70
2022-11-07T07:37:56.344Z,57.97
2022-11-07T07:38:56.330Z,59.91
2022-11-07T07:39:56.343Z,58.58
2022-11-07T07:40:56.331Z,59.38
2022-11-07T07:41:56.306Z,62.36
2022-11-07T07:42:56.370Z,59.44
2022-11-07T07:43:56.284Z,58.64
2022-11-07T07:44:56.272Z,58.37
2022-11-07T07:45:56.366Z,59.29
2022-11-07T07:46:56.251Z,65.15
2022-11-07T07:47:56.280Z,59.52
2022-11-07T07:48:56.229Z,60.82
2022-11-07T07:49:56.256Z,60.37
2022-11-07T07:50:56.215Z,59.23
2022-11-07T07:51:56.216Z,58.79
2022-11-07T07:52:56.187Z,63.39
2022-11-07T07:53:56.201Z,58.44
2022-11-07T07:54:56.208Z,58.34
2022-11-07T07:55:56.178Z,57.84
2022-11-07T07:56:56.147Z,58.58
2022-11-07T07:57:56.166Z,61.67
2022-11-07T07:58:56.135Z,59.31
2022-11-07T07:59:56.129Z,59.79
2022-11-07T08:00:56.153Z,57.79
2022-11-07T08:01:57.304Z,57.77
2022-11-07T08:02:57.110Z,60.01
2022-11-07T08:04:02.077Z,60.36
2022-11-07T08:04:58.102Z,57.60
2022-11-07T08:05:56.077Z,57.52
2022-11-07T08:06:56.066Z,58.57
2022-11-07T08:07:56.057Z,57.98
2022-11-07T08:08:56.052Z,58.45
2022-11-07T08:09:57.318Z,59.02
2022-11-07T08:10:56.051Z,58.43
2022-11-07T08:11:56.018Z,59.20
2022-11-07T08:12:55.992Z,58.77
2022-11-07T08:14:00.841Z,58.13
2022-11-07T08:14:57.976Z,57.89
2022-11-07T08:15:56.029Z,60.47
2022-11-07T08:16:56.024Z,57.12
2022-11-07T08:17:56.067Z,58.46
2022-11-07T08:18:55.955Z,57.57
2022-11-07T08:19:55.981Z,59.23
2022-11-07T08:20:55.911Z,58.69
2022-11-07T08:21:55.907Z,59.95
2022-11-07T08:22:55.892Z,56.67
2022-11-07T08:23:55.983Z,57.99
2022-11-07T08:24:55.885Z,58.58
2022-11-07T08:25:55.917Z,59.27
2022-11-07T08:26:55.866Z,57.90
2022-11-07T08:27:55.911Z,58.93
2022-11-07T08:28:55.867Z,59.89
2022-11-07T08:29:55.829Z,56.27
2022-11-07T08:30:55.839Z,58.45
2022-11-07T08:31:55.816Z,58.39
2022-11-07T08:32:55.802Z,58.16
2022-11-07T08:33:55.859Z,58.03
2022-11-07T08:34:55.818Z,57.02
2022-11-07T08:35:55.774Z,57.07
2022-11-07T08:37:22.690Z,58.04
2022-11-07T08:37:55.747Z,58.84
2022-11-07T08:38:55.793Z,57.45
2022-11-07T08:39:55.739Z,57.95
2022-11-07T08:40:55.725Z,57.78
2022-11-07T08:41:55.728Z,57.48
2022-11-07T08:42:55.758Z,58.72
2022-11-07T08:43:55.726Z,59.63
2022-11-07T08:44:55.718Z,57.51
2022-11-07T08:45:55.677Z,59.74
2022-11-07T08:46:55.698Z,56.98
2022-11-07T08:47:55.701Z,59.28
2022-11-07T08:48:55.638Z,56.75
2022-11-07T08:49:55.678Z,56.66
2022-11-07T08:50:55.632Z,58.82
2022-11-07T08:51:55.627Z,58.68
2022-11-07T08:53:01.187Z,56.81
2022-11-07T08:53:57.600Z,58.64
2022-11-07T08:54:55.593Z,57.22
2022-11-07T08:55:55.582Z,56.50
2022-11-07T08:56:55.570Z,58.61
2022-11-07T08:57:55.591Z,57.77
2022-11-07T08:58:55.591Z,57.41
2022-11-07T08:59:55.645Z,63.08
2022-11-07T09:00:55.589Z,61.56
2022-11-07T09:02:39.108Z,57.97
2022-11-07T09:03:30.812Z,58.01
2022-11-07T09:03:58.572Z,63.27
2022-11-07T09:04:56.495Z,59.53
2022-11-07T09:05:55.567Z,57.55
2022-11-07T09:06:55.529Z,57.67
2022-11-07T09:07:55.476Z,57.72
2022-11-07T09:08:55.471Z,58.05
2022-11-07T09:09:55.440Z,56.53
2022-11-07T09:10:55.472Z,57.64
2022-11-07T09:11:55.471Z,60.14
2022-11-07T09:12:55.423Z,56.47
2022-11-07T09:13:55.441Z,55.86
2022-11-07T09:14:55.395Z,59.02
2022-11-07T09:15:55.392Z,57.24
2022-11-07T09:16:55.385Z,55.43
2022-11-07T09:17:55.356Z,57.60
2022-11-07T09:18:55.366Z,57.51
2022-11-07T09:19:55.351Z,56.91
2022-11-07T09:20:55.352Z,57.39
2022-11-07T09:21:55.351Z,57.17
2022-11-07T09:22:55.339Z,60.55
2022-11-07T09:23:55.329Z,55.92
2022-11-07T09:24:55.301Z,55.56
2022-11-07T09:25:55.278Z,57.70
2022-11-07T09:26:55.283Z,56.54
2022-11-07T09:27:55.291Z,65.60
2022-11-07T09:29:00.828Z,57.27
2022-11-07T09:29:57.248Z,59.96
2022-11-07T09:30:55.291Z,56.90
2022-11-07T09:31:55.267Z,58.07
2022-11-07T09:32:55.229Z,58.98
2022-11-07T09:33:55.211Z,58.91
2022-11-07T09:34:58.318Z,57.66
2022-11-07T09:35:56.234Z,56.75
2022-11-07T09:36:55.205Z,58.28
2022-11-07T09:37:55.248Z,57.59
2022-11-07T09:38:55.290Z,57.91
2022-11-07T09:39:55.162Z,54.97
2022-11-07T09:40:55.144Z,55.83
2022-11-07T09:41:55.150Z,57.45
2022-11-07T09:42:55.155Z,61.62
2022-11-07T09:43:55.104Z,57.48
2022-11-07T09:44:55.117Z,57.04
2022-11-07T09:45:55.101Z,58.96
2022-11-07T09:46:55.084Z,57.11
2022-11-07T09:47:55.096Z,57.45
2022-11-07T09:48:55.097Z,57.79
2022-11-07T09:49:55.057Z,58.37
2022-11-07T09:50:55.045Z,58.77
2022-11-07T09:51:55.028Z,59.14
2022-11-07T09:52:55.028Z,57.88
2022-11-07T09:53:55.058Z,57.86
2022-11-07T09:54:55.007Z,56.40
2022-11-07T09:55:55.007Z,57.98
2022-11-07T09:56:55.030Z,58.19
2022-11-07T09:57:54.989Z,56.20
2022-11-07T09:58:54.996Z,56.66
2022-11-07T09:59:54.975Z,56.60
2022-11-07T10:00:54.968Z,56.73
2022-11-07T10:01:55.005Z,58.30
2022-11-07T10:02:54.922Z,54.37
2022-11-07T10:04:25.389Z,55.35
2022-11-07T10:04:56.900Z,57.17
2022-11-07T10:05:54.896Z,58.10
2022-11-07T10:06:54.917Z,59.37
2022-11-07T10:07:54.880Z,56.47
2022-11-07T10:08:54.889Z,58.28
2022-11-07T10:09:54.857Z,56.56
2022-11-07T10:10:54.847Z,56.29
2022-11-07T10:11:54.874Z,58.67
2022-11-07T10:12:54.822Z,57.40
2022-11-07T10:13:54.805Z,59.07
2022-11-07T10:14:54.809Z,57.66
2022-11-07T10:15:54.859Z,58.54
2022-11-07T10:16:54.787Z,58.57
2022-11-07T10:17:54.793Z,58.18
2022-11-07T10:18:54.822Z,57.62
2022-11-07T10:19:54.754Z,62.94
2022-11-07T10:21:10.157Z,61.38
2022-11-07T10:21:55.912Z,58.79
2022-11-07T10:22:54.741Z,58.46
2022-11-07T10:23:54.714Z,58.97
2022-11-07T10:24:54.704Z,57.41
2022-11-07T10:25:54.713Z,59.67
2022-11-07T10:26:54.704Z,60.08
2022-11-07T10:27:54.679Z,59.45
2022-11-07T10:28:54.671Z,57.09
2022-11-07T10:29:54.702Z,56.00
2022-11-07T10:30:54.645Z,59.31
2022-11-07T10:31:54.645Z,59.43
2022-11-07T10:32:54.629Z,59.79
2022-11-07T10:33:54.630Z,58.47
2022-11-07T10:34:54.961Z,58.96
2022-11-07T10:35:55.592Z,59.36
2022-11-07T10:36:54.608Z,58.98
2022-11-07T10:37:54.606Z,57.44
2022-11-07T10:38:54.600Z,59.41
2022-11-07T10:39:54.586Z,56.61
2022-11-07T10:40:54.549Z,58.21
2022-11-07T10:41:54.546Z,57.94
2022-11-07T10:42:54.568Z,57.84
2022-11-07T10:43:54.527Z,59.56
2022-11-07T10:44:54.510Z,60.68
2022-11-07T10:45:54.513Z,58.07
2022-11-07T10:46:54.877Z,59.58
2022-11-07T10:47:54.502Z,58.90
2022-11-07T10:48:54.541Z,60.51
2022-11-07T10:49:54.484Z,60.39
2022-11-07T10:50:54.470Z,58.11
2022-11-07T10:51:54.449Z,57.99
2022-11-07T10:52:54.447Z,58.90
2022-11-07T10:53:54.455Z,60.23
2022-11-07T10:54:54.431Z,58.80
2022-11-07T10:55:54.408Z,58.89
2022-11-07T10:56:54.418Z,59.07
2022-11-07T10:57:54.437Z,58.75
2022-11-07T10:58:54.385Z,59.06
2022-11-07T10:59:54.426Z,61.78
2022-11-07T11:00:54.383Z,55.66
2022-11-07T11:01:54.410Z,58.14
2022-11-07T11:02:54.377Z,57.73
2022-11-07T11:03:54.334Z,56.05
2022-11-07T11:04:54.469Z,58.58
2022-11-07T11:05:54.314Z,58.25
2022-11-07T11:06:54.302Z,59.18
2022-11-07T11:07:54.304Z,59.40
2022-11-07T11:08:54.280Z,58.92
2022-11-07T11:09:54.270Z,58.62
2022-11-07T11:10:54.282Z,57.45
2022-11-07T11:11:54.346Z,58.63
2022-11-07T11:12:54.252Z,60.41
2022-11-07T11:13:54.233Z,59.43
2022-11-07T11:14:54.263Z,58.09
2022-11-07T11:15:54.207Z,58.84
2022-11-07T11:16:54.289Z,60.73
2022-11-07T11:17:54.197Z,60.14
2022-11-07T11:18:55.189Z,58.33
2022-11-07T11:19:54.231Z,57.60
2022-11-07T11:20:54.167Z,57.96
2022-11-07T11:21:54.184Z,57.08
2022-11-07T11:22:54.141Z,57.00
2022-11-07T11:23:54.132Z,58.06
2022-11-07T11:24:54.155Z,56.64
2022-11-07T11:25:54.121Z,58.42
2022-11-07T11:26:54.123Z,55.31
2022-11-07T11:27:54.110Z,57.32
2022-11-07T11:28:54.105Z,58.45
2022-11-07T11:29:54.075Z,59.06
2022-11-07T11:30:54.119Z,56.76
2022-11-07T11:31:54.063Z,59.15
2022-11-07T11:32:54.102Z,60.13
2022-11-07T11:33:54.040Z,59.43
2022-11-07T11:34:54.104Z,59.59
2022-11-07T11:35:54.037Z,59.58
2022-11-07T11:36:54.027Z,61.78
2022-11-07T11:37:54.021Z,59.27
2022-11-07T11:38:54.033Z,58.93
2022-11-07T11:39:54.000Z,58.33
2022-11-07T11:41:01.502Z,58.24
2022-11-07T11:41:55.963Z,60.61
2022-11-07T11:42:53.957Z,58.38
2022-11-07T11:43:53.990Z,63.95
2022-11-07T11:44:54.056Z,62.54
2022-11-07T11:45:53.997Z,59.31
2022-11-07T11:46:53.919Z,58.63
2022-11-07T11:47:53.912Z,57.97
2022-11-07T11:48:53.913Z,57.14
2022-11-07T11:49:53.899Z,60.90
2022-11-07T11:50:53.874Z,58.84
2022-11-07T11:51:53.908Z,57.55
2022-11-07T11:52:53.856Z,61.55
2022-11-07T11:53:53.871Z,60.62
2022-11-07T11:54:53.823Z,60.39
2022-11-07T11:55:53.833Z,59.57
2022-11-07T11:56:53.842Z,60.40
2022-11-07T11:57:53.817Z,63.20
2022-11-07T11:58:53.793Z,58.45
2022-11-07T11:59:53.795Z,56.52
2022-11-07T12:00:53.819Z,57.24
2022-11-07T12:01:53.863Z,57.81
2022-11-07T12:02:53.754Z,56.39
2022-11-07T12:03:53.757Z,56.48
2022-11-07T12:04:53.735Z,58.12
2022-11-07T12:05:53.783Z,57.29
2022-11-07T12:06:53.715Z,57.63
2022-11-07T12:07:53.720Z,59.42
2022-11-07T12:08:53.734Z,63.62
2022-11-07T12:09:54.720Z,59.17
2022-11-07T12:10:53.682Z,58.37
2022-11-07T12:11:53.742Z,58.69
2022-11-07T12:12:53.675Z,54.87
2022-11-07T12:13:53.647Z,60.81
2022-11-07T12:14:57.603Z,56.46
2022-11-07T12:15:53.690Z,55.06
2022-11-07T12:16:53.614Z,57.82
2022-11-07T12:17:53.618Z,57.58
2022-11-07T12:18:53.602Z,58.56
2022-11-07T12:19:53.581Z,58.24
2022-11-07T12:20:53.691Z,57.85
2022-11-07T12:21:53.596Z,57.57
2022-11-07T12:22:53.552Z,62.89
2022-11-07T12:23:53.583Z,58.54
2022-11-07T12:24:53.539Z,57.85
2022-11-07T12:25:53.530Z,56.35
2022-11-07T12:26:56.366Z,56.27
2022-11-07T12:27:53.532Z,55.68
2022-11-07T12:28:53.599Z,56.91
2022-11-07T12:29:53.490Z,56.92
2022-11-07T12:30:53.524Z,56.18
2022-11-07T12:31:53.501Z,55.96
2022-11-07T12:32:53.481Z,59.60
2022-11-07T12:33:53.463Z,58.11
2022-11-07T12:34:53.446Z,59.02
2022-11-07T12:35:53.455Z,56.85
2022-11-07T12:36:53.437Z,57.18
2022-11-07T12:37:53.438Z,58.24
2022-11-07T12:38:53.418Z,59.68
2022-11-07T12:39:53.395Z,56.45
2022-11-07T12:40:53.389Z,55.56
2022-11-07T12:41:53.365Z,60.16
2022-11-07T12:42:57.304Z,55.90
2022-11-07T12:43:54.374Z,57.69
2022-11-07T12:44:53.378Z,57.09
2022-11-07T12:45:53.335Z,55.40
2022-11-07T12:46:53.373Z,62.41
2022-11-07T12:47:53.318Z,57.71
2022-11-07T12:48:53.324Z,58.56
2022-11-07T12:49:53.289Z,58.09
2022-11-07T12:50:53.274Z,58.38
2022-11-07T12:51:53.267Z,56.22